createdAt,value
2023-05-02T00:01:43.985Z,70.29
2023-05-02T00:04:11.127Z,72.20
2023-05-02T00:06:38.296Z,71.53
2023-05-02T00:09:05.187Z,71.67
2023-05-02T00:11:32.297Z,73.96
2023-05-02T00:13:59.134Z,74.07
2023-05-02T00:16:26.382Z,72.80
2023-05-02T00:18:53.180Z,73.10
2023-05-02T00:21:20.451Z,74.11
2023-05-02T00:23:47.207Z,73.50
2023-05-02T00:26:14.372Z,70.99
2023-05-02T00:28:41.182Z,72.18
2023-05-02T00:31:08.349Z,71.21
2023-05-02T00:33:35.210Z,70.30
2023-05-02T00:36:02.338Z,70.90
2023-05-02T00:38:29.173Z,71.28
2023-05-02T00:40:56.336Z,71.50
2023-05-02T00:43:23.196Z,70.64
2023-05-02T00:45:51.072Z,69.45
2023-05-02T00:48:20.627Z,69.66
2023-05-02T00:50:47.740Z,68.23
2023-05-02T00:53:15.328Z,69.11
2023-05-02T00:55:45.685Z,70.30
2023-05-02T00:58:18.584Z,70.04
2023-05-02T01:00:57.811Z,69.33
2023-05-02T01:03:37.458Z,70.12
2023-05-02T01:06:20.144Z,70.45
2023-05-02T01:08:58.614Z,70.68
2023-05-02T01:11:39.632Z,71.47
2023-05-02T01:14:10.527Z,71.07
2023-05-02T01:16:41.178Z,70.30
2023-05-02T01:19:25.198Z,71.24
2023-05-02T01:21:54.275Z,71.40
2023-05-02T01:24:32.869Z,73.99
2023-05-02T01:27:18.650Z,74.17
2023-05-02T01:29:48.077Z,74.44
2023-05-02T01:32:16.297Z,74.51
2023-05-02T01:34:46.802Z,74.08
2023-05-02T01:37:17.962Z,74.32
2023-05-02T01:39:45.848Z,75.82
2023-05-02T01:42:15.078Z,74.64
2023-05-02T01:44:43.502Z,72.56
2023-05-02T01:47:14.188Z,74.26
2023-05-02T01:49:44.029Z,75.01
2023-05-02T01:52:14.122Z,74.59
2023-05-02T01:54:42.416Z,73.66
2023-05-02T01:57:11.720Z,73.52
2023-05-02T01:59:41.527Z,71.77
2023-05-02T02:02:10.786Z,72.40
2023-05-02T02:04:40.741Z,72.65
2023-05-02T02:07:10.947Z,71.20
2023-05-02T02:09:37.829Z,67.30
2023-05-02T02:12:11.187Z,68.01
2023-05-02T02:14:42.281Z,67.91
2023-05-02T02:17:16.508Z,67.77
2023-05-02T02:19:45.812Z,68.98
2023-05-02T02:22:15.230Z,67.75
2023-05-02T02:24:43.859Z,69.22
2023-05-02T02:27:11.131Z,69.72
2023-05-02T02:29:38.069Z,71.26
2023-05-02T02:32:05.372Z,70.88
2023-05-02T02:34:32.402Z,71.99
2023-05-02T02:37:27.891Z,71.92
2023-05-02T02:40:21.889Z,73.54
2023-05-02T02:43:07.535Z,74.00
2023-05-02T02:45:48.539Z,75.78
2023-05-02T02:48:32.119Z,75.57
2023-05-02T02:51:01.845Z,74.82
2023-05-02T02:53:45.056Z,73.65
2023-05-02T02:56:20.149Z,73.19
2023-05-02T02:59:08.151Z,72.87
2023-05-02T03:01:39.129Z,73.87
2023-05-02T03:04:09.033Z,75.42
2023-05-02T03:06:36.038Z,75.62
2023-05-02T03:09:04.284Z,74.82
2023-05-02T03:11:31.127Z,75.93
2023-05-02T03:13:58.204Z,75.10
2023-05-02T03:16:37.898Z,76.94
2023-05-02T03:19:06.873Z,77.71
2023-05-02T03:21:34.559Z,77.53
2023-05-02T03:24:03.053Z,78.19
2023-05-02T03:26:30.145Z,78.19
2023-05-02T03:28:57.458Z,79.12
2023-05-02T03:31:26.414Z,79.62
2023-05-02T03:33:54.571Z,81.59
2023-05-02T03:36:21.554Z,80.78
2023-05-02T03:38:48.653Z,81.56
2023-05-02T03:41:15.587Z,81.53
2023-05-02T03:43:42.655Z,81.85
2023-05-02T03:46:11.496Z,82.49
2023-05-02T03:48:38.876Z,82.34
2023-05-02T03:51:08.309Z,82.60
2023-05-02T03:53:35.810Z,82.15
2023-05-02T03:56:02.587Z,83.85
2023-05-02T03:58:29.756Z,83.58
2023-05-02T04:00:56.711Z,84.03
2023-05-02T04:03:24.242Z,84.13
2023-05-02T04:05:51.826Z,84.93
2023-05-02T04:08:19.107Z,84.10
2023-05-02T04:10:46.135Z,86.66
2023-05-02T04:13:13.416Z,85.25
2023-05-02T04:15:40.309Z,87.14
2023-05-02T04:18:07.675Z,85.76
2023-05-02T04:20:34.553Z,84.87
2023-05-02T04:23:01.694Z,84.78
2023-05-02T04:25:28.746Z,84.31
2023-05-02T04:27:56.674Z,85.44
2023-05-02T04:30:23.621Z,85.71
2023-05-02T04:32:51.065Z,84.64
2023-05-02T04:35:18.025Z,84.54
2023-05-02T04:37:45.319Z,85.60
2023-05-02T04:40:12.815Z,85.61
2023-05-02T04:42:39.939Z,85.54
2023-05-02T04:45:07.414Z,83.77
2023-05-02T04:47:34.624Z,84.34
2023-05-02T04:50:01.796Z,84.24
2023-05-02T04:52:30.495Z,85.98
2023-05-02T04:54:57.411Z,84.19
2023-05-02T04:57:24.561Z,84.39
2023-05-02T04:59:51.337Z,82.18
2023-05-02T05:02:18.502Z,82.24
2023-05-02T05:04:46.092Z,81.63
2023-05-02T05:07:13.231Z,81.35
2023-05-02T05:09:40.159Z,80.58
2023-05-02T05:12:07.716Z,78.35
2023-05-02T05:14:34.939Z,79.94
2023-05-02T05:17:02.197Z,80.65
2023-05-02T05:19:29.045Z,79.02
2023-05-02T05:21:56.314Z,78.37
2023-05-02T05:24:23.182Z,77.59
2023-05-02T05:26:50.279Z,78.95
2023-05-02T05:29:18.308Z,77.54
2023-05-02T05:31:45.492Z,77.75
2023-05-02T05:34:13.853Z,77.75
2023-05-02T05:36:41.941Z,79.08
2023-05-02T05:39:08.930Z,76.60
2023-05-02T05:41:36.103Z,75.49
2023-05-02T05:44:05.774Z,74.18
2023-05-02T05:46:32.952Z,73.96
2023-05-02T05:48:59.810Z,73.16
2023-05-02T05:51:27.973Z,73.18
2023-05-02T05:53:54.833Z,73.11
2023-05-02T05:56:22.894Z,72.62
2023-05-02T05:58:49.815Z,72.18
2023-05-02T06:01:16.994Z,70.18
2023-05-02T06:03:43.912Z,71.25
2023-05-02T06:06:11.319Z,71.10
2023-05-02T06:08:38.126Z,71.32
2023-05-02T06:11:09.608Z,70.30
2023-05-02T06:13:36.462Z,69.95
2023-05-02T06:16:03.774Z,69.03
2023-05-02T06:18:30.627Z,67.57
2023-05-02T06:20:58.049Z,63.70
2023-05-02T06:23:24.979Z,64.94
2023-05-02T06:25:52.186Z,66.39
2023-05-02T06:28:19.026Z,63.66
2023-05-02T06:30:46.060Z,63.07
2023-05-02T06:33:13.015Z,60.29
2023-05-02T06:35:40.155Z,61.05
2023-05-02T06:38:07.039Z,62.77
2023-05-02T06:40:36.420Z,61.71
2023-05-02T06:43:03.387Z,62.06
2023-05-02T06:45:30.549Z,61.00
2023-05-02T06:47:57.385Z,59.95
2023-05-02T06:50:26.616Z,59.00
2023-05-02T06:52:53.512Z,60.13
2023-05-02T06:55:21.158Z,58.36
2023-05-02T06:57:49.532Z,58.88
2023-05-02T07:00:18.112Z,58.89
2023-05-02T07:02:46.728Z,57.19
2023-05-02T07:05:15.772Z,58.34
2023-05-02T07:07:43.328Z,56.72
2023-05-02T07:10:11.345Z,54.87
2023-05-02T07:12:39.534Z,54.91
2023-05-02T07:15:07.296Z,55.34
2023-05-02T07:17:34.567Z,55.39
2023-05-02T07:20:01.802Z,54.63
2023-05-02T07:22:28.788Z,53.74
2023-05-02T07:25:01.155Z,53.54
2023-05-02T07:27:28.116Z,52.36
2023-05-02T07:29:55.211Z,53.15
2023-05-02T07:32:22.607Z,53.00
2023-05-02T07:34:49.857Z,54.83
2023-05-02T07:37:16.688Z,53.61
2023-05-02T07:39:43.854Z,53.60
2023-05-02T07:42:10.752Z,53.16
2023-05-02T07:44:37.870Z,52.01
2023-05-02T07:47:04.849Z,51.01
2023-05-02T07:49:31.964Z,52.86
2023-05-02T07:51:58.820Z,53.42
2023-05-02T07:54:28.941Z,52.12
2023-05-02T07:56:58.259Z,50.16
2023-05-02T07:59:25.517Z,52.49
2023-05-02T08:01:52.305Z,53.07
2023-05-02T08:04:19.622Z,53.48
2023-05-02T08:06:46.646Z,49.47
2023-05-02T08:09:13.759Z,51.81
2023-05-02T08:11:40.590Z,49.95
2023-05-02T08:14:07.718Z,50.26
2023-05-02T08:16:34.638Z,50.22
2023-05-02T08:19:01.944Z,49.26
2023-05-02T08:21:29.368Z,48.53
2023-05-02T08:23:58.660Z,47.29
2023-05-02T08:26:25.680Z,48.44
2023-05-02T08:28:52.957Z,46.35
2023-05-02T08:31:19.853Z,46.83
2023-05-02T08:33:47.584Z,45.37
2023-05-02T08:36:15.818Z,47.43
2023-05-02T08:38:44.309Z,45.90
2023-05-02T08:41:18.715Z,44.86
2023-05-02T08:43:48.561Z,45.52
2023-05-02T08:46:17.282Z,46.00
2023-05-02T08:48:48.230Z,45.82
2023-05-02T08:51:16.971Z,47.21
2023-05-02T08:53:44.901Z,45.57
2023-05-02T08:56:13.145Z,44.64
2023-05-02T08:58:41.790Z,44.88
2023-05-02T09:01:21.446Z,44.33
2023-05-02T09:03:51.976Z,43.28
2023-05-02T09:06:21.175Z,44.96
2023-05-02T09:08:50.851Z,43.29
2023-05-02T09:11:18.256Z,43.19
2023-05-02T09:13:50.701Z,43.06
2023-05-02T09:16:23.422Z,43.59
2023-05-02T09:18:53.124Z,42.42
2023-05-02T09:21:22.412Z,41.62
2023-05-02T09:23:53.580Z,41.99
2023-05-02T09:26:33.738Z,42.10
2023-05-02T09:29:03.255Z,41.03
2023-05-02T09:34:12.571Z,40.97
2023-05-02T09:36:55.942Z,40.46
2023-05-02T09:39:29.050Z,41.08
2023-05-02T09:41:56.638Z,43.24
2023-05-02T09:44:26.225Z,41.43
2023-05-02T09:46:54.908Z,41.14
2023-05-02T09:49:47.216Z,40.07
2023-05-02T09:52:16.406Z,39.83
2023-05-02T09:54:46.376Z,40.07
2023-05-02T09:57:13.334Z,37.80
2023-05-02T09:59:41.121Z,38.31
2023-05-02T10:02:10.502Z,38.41
2023-05-02T10:04:38.969Z,40.26
2023-05-02T10:07:06.751Z,38.26
2023-05-02T10:09:36.299Z,37.83
2023-05-02T10:12:05.184Z,38.84
2023-05-02T10:14:39.559Z,37.94
2023-05-02T10:17:14.255Z,37.17
2023-05-02T10:19:59.490Z,38.69
2023-05-02T10:22:27.055Z,38.50
2023-05-02T10:24:54.962Z,36.79
2023-05-02T10:27:23.388Z,36.70
2023-05-02T10:29:51.928Z,37.22
2023-05-02T10:32:19.137Z,37.95
2023-05-02T10:34:47.731Z,37.52
2023-05-02T10:37:16.229Z,36.75
2023-05-02T10:39:43.432Z,35.31
2023-05-02T10:42:10.669Z,35.73
2023-05-02T10:44:40.549Z,37.18
2023-05-02T10:47:27.281Z,36.78
2023-05-02T10:50:02.446Z,37.07
2023-05-02T10:52:29.297Z,38.03
2023-05-02T10:55:19.982Z,37.62
2023-05-02T10:57:59.433Z,37.47
2023-05-02T11:00:27.281Z,37.59
2023-05-02T11:02:55.104Z,37.45
2023-05-02T11:05:24.170Z,37.63
2023-05-02T11:08:13.511Z,37.90
2023-05-02T11:10:40.802Z,37.84
2023-05-02T11:13:07.648Z,38.02
2023-05-02T11:15:34.808Z,38.08
2023-05-02T11:18:11.825Z,38.66
2023-05-02T11:20:40.864Z,38.25
2023-05-02T11:23:22.840Z,38.67
2023-05-02T11:25:52.252Z,38.81
2023-05-02T11:28:34.415Z,39.30
2023-05-02T11:31:01.594Z,38.05
2023-05-02T11:33:29.213Z,38.48
2023-05-02T11:35:59.616Z,37.39
2023-05-02T11:38:35.125Z,36.13
2023-05-02T11:41:04.268Z,36.62
2023-05-02T11:43:32.418Z,37.73
2023-05-02T11:46:02.176Z,36.53
2023-05-02T11:48:30.694Z,37.27
2023-05-02T11:51:03.693Z,36.01
2023-05-02T11:53:31.577Z,36.51
2023-05-02T11:56:03.545Z,37.63
2023-05-02T11:58:33.474Z,39.49
2023-05-02T12:01:17.410Z,39.43
2023-05-02T12:03:45.182Z,39.58
2023-05-02T12:06:15.147Z,38.69
2023-05-02T12:08:45.657Z,38.38
2023-05-02T12:11:13.984Z,37.69
2023-05-02T12:13:48.740Z,38.79
2023-05-02T12:16:17.555Z,36.72
2023-05-02T12:18:45.721Z,37.96
2023-05-02T12:21:13.073Z,36.62
2023-05-02T12:23:43.097Z,36.20
2023-05-02T12:26:25.681Z,35.61
2023-05-02T12:28:54.777Z,35.41
2023-05-02T12:31:22.681Z,34.27
2023-05-02T12:33:51.085Z,35.09
2023-05-02T12:36:21.681Z,33.41
2023-05-02T12:38:54.570Z,33.95
2023-05-02T12:41:32.028Z,33.17
2023-05-02T12:44:00.704Z,33.56
2023-05-02T12:46:28.541Z,32.75
2023-05-02T12:49:09.742Z,32.90
2023-05-02T12:51:37.893Z,33.75
2023-05-02T12:54:05.399Z,32.86
2023-05-02T12:56:43.869Z,33.07
2023-05-02T12:59:28.600Z,32.04
2023-05-02T13:01:55.778Z,33.05
2023-05-02T13:04:22.760Z,33.13
2023-05-02T13:06:49.925Z,33.57
2023-05-02T13:09:17.176Z,34.08
2023-05-02T13:11:44.486Z,34.50
2023-05-02T13:14:11.598Z,34.60
2023-05-02T13:16:38.858Z,34.24
2023-05-02T13:19:05.817Z,35.39
2023-05-02T13:21:33.056Z,35.87
2023-05-02T13:23:59.987Z,35.85
2023-05-02T13:26:27.068Z,36.25
2023-05-02T13:28:53.925Z,36.80
2023-05-02T13:31:21.050Z,36.60
2023-05-02T13:33:47.944Z,37.05
2023-05-02T13:36:15.072Z,37.43
2023-05-02T13:38:42.281Z,36.07
2023-05-02T13:41:09.467Z,36.21
2023-05-02T13:43:36.356Z,36.12
2023-05-02T13:46:03.548Z,36.60
2023-05-02T13:48:30.483Z,37.31
2023-05-02T13:50:57.610Z,36.89
2023-05-02T13:53:24.990Z,36.44
2023-05-02T13:55:52.130Z,36.27
2023-05-02T13:58:18.978Z,36.64
2023-05-02T14:00:47.333Z,37.38
2023-05-02T14:03:14.536Z,37.02
2023-05-02T14:05:43.726Z,37.74
2023-05-02T14:08:11.346Z,38.15
2023-05-02T14:10:39.116Z,40.51
2023-05-02T14:13:05.983Z,41.23
2023-05-02T14:15:33.132Z,41.87
2023-05-02T14:17:59.977Z,42.35
2023-05-02T14:20:27.174Z,42.11
2023-05-02T14:22:54.066Z,42.09
2023-05-02T14:25:21.166Z,39.69
2023-05-02T14:27:48.046Z,38.15
2023-05-02T14:30:15.372Z,37.21
2023-05-02T14:32:42.378Z,37.48
2023-05-02T14:35:10.069Z,37.27
2023-05-02T14:37:37.009Z,36.29
2023-05-02T14:40:04.741Z,36.72
2023-05-02T14:42:31.972Z,36.57
2023-05-02T14:45:02.285Z,37.21
2023-05-02T14:47:31.287Z,37.73
2023-05-02T14:49:58.637Z,37.22
2023-05-02T14:52:25.600Z,37.25
2023-05-02T14:54:53.313Z,37.35
2023-05-02T14:57:20.432Z,37.63
2023-05-02T14:59:47.572Z,37.67
2023-05-02T15:02:14.578Z,38.39
2023-05-02T15:04:41.862Z,37.89
2023-05-02T15:07:09.102Z,38.04
2023-05-02T15:09:36.527Z,37.86
2023-05-02T15:12:03.508Z,38.57
2023-05-02T15:14:30.667Z,37.49
2023-05-02T15:17:03.750Z,37.54
2023-05-02T15:19:30.973Z,38.59
2023-05-02T15:21:57.852Z,38.73
2023-05-02T15:24:25.072Z,38.45
2023-05-02T15:26:52.153Z,38.26
2023-05-02T15:29:19.688Z,38.04
2023-05-02T15:31:46.566Z,38.24
2023-05-02T15:34:13.928Z,38.23
2023-05-02T15:36:41.110Z,37.90
2023-05-02T15:39:08.364Z,38.14
2023-05-02T15:41:35.372Z,37.85
2023-05-02T15:44:02.517Z,37.96
2023-05-02T15:46:29.349Z,37.80
2023-05-02T15:48:56.551Z,38.40
2023-05-02T15:51:23.348Z,38.52
2023-05-02T15:53:52.426Z,38.08
2023-05-02T15:56:21.271Z,37.90
2023-05-02T15:58:48.998Z,37.72
2023-05-02T16:01:15.947Z,38.05
2023-05-02T16:03:43.254Z,38.64
2023-05-02T16:06:10.224Z,38.67
2023-05-02T16:08:37.442Z,38.40
2023-05-02T16:11:04.388Z,38.46
2023-05-02T16:13:31.751Z,38.65
2023-05-02T16:15:58.743Z,38.11
2023-05-02T16:18:28.546Z,37.98
2023-05-02T16:20:59.566Z,38.02
2023-05-02T16:23:27.266Z,38.27
2023-05-02T16:26:01.550Z,38.32
2023-05-02T16:28:29.143Z,37.49
2023-05-02T16:30:56.186Z,37.46
2023-05-02T16:33:23.575Z,37.62
2023-05-02T16:36:00.488Z,37.99
2023-05-02T16:38:27.666Z,37.97
2023-05-02T16:40:54.442Z,38.18
2023-05-02T16:43:23.706Z,38.15
2023-05-02T16:46:06.665Z,38.43
2023-05-02T16:48:34.547Z,38.64
2023-05-02T16:51:03.294Z,37.60
2023-05-02T16:53:31.966Z,37.76
2023-05-02T16:55:59.677Z,37.72
2023-05-02T16:58:29.870Z,38.11
2023-05-02T17:00:56.935Z,38.03
2023-05-02T17:03:24.186Z,37.69
2023-05-02T17:05:51.045Z,37.78
2023-05-02T17:08:18.141Z,40.32
2023-05-02T17:10:52.601Z,42.87
2023-05-02T17:13:19.834Z,44.12
2023-05-02T17:15:47.019Z,46.05
2023-05-02T17:18:14.374Z,46.67
2023-05-02T17:20:41.544Z,48.75
2023-05-02T17:23:09.810Z,49.57
2023-05-02T17:25:36.743Z,50.20
2023-05-02T17:28:04.159Z,51.07
2023-05-02T17:30:32.150Z,51.48
2023-05-02T17:33:00.642Z,51.64
2023-05-02T17:35:27.772Z,52.34
2023-05-02T17:37:55.353Z,52.97
2023-05-02T17:40:22.275Z,53.38
2023-05-02T17:42:49.453Z,53.52
2023-05-02T17:45:16.806Z,54.03
2023-05-02T17:47:43.955Z,54.54
2023-05-02T17:50:11.026Z,54.73
2023-05-02T17:52:38.907Z,54.74
2023-05-02T17:55:06.870Z,55.12
2023-05-02T17:57:34.029Z,55.17
2023-05-02T18:00:01.424Z,55.54
2023-05-02T18:02:29.040Z,55.58
2023-05-02T18:04:55.909Z,55.42
2023-05-02T18:07:29.036Z,55.74
2023-05-02T18:10:02.239Z,55.29
2023-05-02T18:12:29.783Z,55.54
2023-05-02T18:14:56.558Z,55.97
2023-05-02T18:17:24.285Z,56.58
2023-05-02T18:19:51.118Z,56.72
2023-05-02T18:22:21.968Z,58.39
2023-05-02T18:24:49.894Z,61.46
2023-05-02T18:27:17.747Z,62.21
2023-05-02T18:29:44.589Z,64.01
2023-05-02T18:32:11.792Z,66.22
2023-05-02T18:34:39.255Z,68.40
2023-05-02T18:37:06.951Z,70.78
2023-05-02T18:39:34.487Z,72.65
2023-05-02T18:42:04.542Z,73.60
2023-05-02T18:44:31.503Z,76.29
2023-05-02T18:46:59.111Z,77.31
2023-05-02T18:49:26.313Z,78.68
2023-05-02T18:51:54.600Z,80.36
2023-05-02T18:54:23.341Z,82.44
2023-05-02T18:56:50.551Z,85.02
2023-05-02T18:59:18.989Z,86.70
2023-05-02T19:01:50.934Z,89.03
2023-05-02T19:04:18.539Z,90.44
2023-05-02T19:06:46.220Z,91.35
2023-05-02T19:09:13.713Z,91.01
2023-05-02T19:11:41.371Z,90.46
2023-05-02T19:14:08.531Z,89.84
2023-05-02T19:16:38.077Z,90.03
2023-05-02T19:19:05.158Z,89.89
2023-05-02T19:21:34.006Z,87.84
2023-05-02T19:24:01.886Z,88.21
2023-05-02T19:26:29.168Z,86.82
2023-05-02T19:28:57.041Z,85.69
2023-05-02T19:31:24.438Z,85.44
2023-05-02T19:33:52.032Z,86.72
2023-05-02T19:36:20.378Z,87.82
2023-05-02T19:38:54.561Z,90.27
2023-05-02T19:41:24.986Z,93.04
2023-05-02T19:43:52.446Z,94.68
2023-05-02T19:46:19.958Z,91.68
2023-05-02T19:48:46.906Z,94.67
2023-05-02T19:51:14.121Z,96.12
2023-05-02T19:53:40.879Z,97.46
2023-05-02T19:56:08.412Z,99.90
2023-05-02T19:58:35.549Z,100.00
2023-05-02T20:01:03.624Z,100.00
2023-05-02T20:03:30.588Z,100.00
2023-05-02T20:05:58.544Z,100.00
2023-05-02T20:08:27.809Z,100.00
2023-05-02T20:10:55.906Z,100.00
2023-05-02T20:13:23.075Z,100.00
2023-05-02T20:15:51.171Z,100.00
2023-05-02T20:18:18.198Z,100.00
2023-05-02T20:20:45.898Z,100.00
2023-05-02T20:23:13.442Z,100.00
2023-05-02T20:25:42.324Z,100.00
2023-05-02T20:28:09.779Z,100.00
2023-05-02T20:30:39.074Z,100.00
2023-05-02T20:33:14.882Z,100.00
2023-05-02T20:35:44.682Z,100.00
2023-05-02T20:38:14.713Z,100.00
2023-05-02T20:40:42.757Z,100.00
2023-05-02T20:43:09.692Z,100.00
2023-05-02T20:45:36.911Z,100.00
2023-05-02T20:48:03.927Z,100.00
2023-05-02T20:50:31.296Z,100.00
2023-05-02T20:52:58.215Z,100.00
2023-05-02T20:55:25.551Z,100.00
2023-05-02T20:57:53.316Z,100.00
2023-05-02T21:00:23.879Z,100.00
2023-05-02T21:02:50.894Z,100.00
2023-05-02T21:05:18.173Z,100.00
2023-05-02T21:07:45.139Z,100.00
2023-05-02T21:10:12.475Z,100.00
2023-05-02T21:12:39.529Z,100.00
2023-05-02T21:15:07.567Z,100.00
2023-05-02T21:17:34.503Z,100.00
2023-05-02T21:20:01.898Z,100.00
2023-05-02T21:22:28.949Z,100.00
2023-05-02T21:24:56.142Z,100.00
2023-05-02T21:27:23.274Z,100.00
2023-05-02T21:29:50.710Z,100.00
2023-05-02T21:32:17.526Z,100.00
2023-05-02T21:34:44.699Z,100.00
2023-05-02T21:37:11.541Z,100.00
2023-05-02T21:39:38.826Z,100.00
2023-05-02T21:42:06.026Z,100.00
2023-05-02T21:44:33.142Z,100.00
2023-05-02T21:47:00.059Z,100.00
2023-05-02T21:49:30.006Z,100.00
2023-05-02T21:51:58.349Z,100.00
2023-05-02T21:54:25.971Z,100.00
2023-05-02T21:56:55.735Z,100.00
2023-05-02T21:59:22.829Z,100.00
2023-05-02T22:01:49.751Z,100.00
2023-05-02T22:04:18.040Z,100.00
2023-05-02T22:06:52.009Z,100.00
2023-05-02T22:09:19.619Z,100.00
2023-05-02T22:11:47.158Z,100.00
2023-05-02T22:14:14.267Z,100.00
2023-05-02T22:16:41.097Z,100.00
2023-05-02T22:19:10.725Z,100.00
2023-05-02T22:21:37.517Z,100.00
2023-05-02T22:24:04.962Z,100.00
2023-05-02T22:26:31.900Z,100.00
2023-05-02T22:28:58.984Z,100.00
2023-05-02T22:31:27.175Z,100.00
2023-05-02T22:33:54.298Z,100.00
2023-05-02T22:36:21.114Z,100.00
2023-05-02T22:38:48.173Z,100.00
2023-05-02T22:41:15.087Z,100.00
2023-05-02T22:43:42.261Z,100.00
2023-05-02T22:46:09.130Z,100.00
2023-05-02T22:48:36.225Z,100.00
2023-05-02T22:51:03.152Z,100.00
2023-05-02T22:53:30.317Z,100.00
2023-05-02T22:55:57.073Z,100.00
2023-05-02T22:58:24.248Z,100.00
2023-05-02T23:00:51.175Z,100.00
2023-05-02T23:03:18.381Z,100.00
2023-05-02T23:05:45.407Z,100.00
2023-05-02T23:08:12.720Z,100.00
2023-05-02T23:10:39.544Z,100.00
2023-05-02T23:13:06.700Z,100.00
2023-05-02T23:15:39.927Z,100.00
2023-05-02T23:18:07.189Z,100.00
2023-05-02T23:20:34.209Z,100.00
2023-05-02T23:23:01.430Z,100.00
2023-05-02T23:25:28.251Z,100.00
2023-05-02T23:27:55.487Z,100.00
2023-05-02T23:30:22.725Z,100.00
2023-05-02T23:32:50.112Z,100.00
2023-05-02T23:35:17.132Z,100.00
2023-05-02T23:37:44.537Z,100.00
2023-05-02T23:40:11.554Z,100.00
2023-05-02T23:42:40.251Z,100.00
2023-05-02T23:45:08.847Z,100.00
2023-05-02T23:47:36.637Z,100.00
2023-05-02T23:50:05.443Z,100.00
2023-05-02T23:52:33.390Z,100.00
2023-05-02T23:55:00.285Z,100.00
2023-05-02T23:57:29.661Z,100.00
2023-05-02T23:59:56.723Z,100.00
